sensor_id;sensor_type;location;lat;lon;timestamp;P1;durP1;ratioP1;P2;durP2;ratioP2
44720;SDS011;30450;52.534;13.398;2022-09-09T00:02:20;9.57;;;8.65;;
44720;SDS011;30450;52.534;13.398;2022-09-09T00:04:51;9.20;;;8.40;;
44720;SDS011;30450;52.534;13.398;2022-09-09T00:12:20;10.60;;;8.75;;
44720;SDS011;30450;52.534;13.398;2022-09-09T00:14:51;9.23;;;8.23;;
44720;SDS011;30450;52.534;13.398;2022-09-09T00:17:24;8.90;;;7.80;;
44720;SDS011;30450;52.534;13.398;2022-09-09T00:22:24;10.63;;;9.50;;
44720;SDS011;30450;52.534;13.398;2022-09-09T00:24:52;8.32;;;7.53;;
44720;SDS011;30450;52.534;13.398;2022-09-09T00:27:21;12.67;;;8.50;;
44720;SDS011;30450;52.534;13.398;2022-09-09T00:32:21;9.57;;;8.68;;
44720;SDS011;30450;52.534;13.398;2022-09-09T00:34:48;9.60;;;8.70;;
44720;SDS011;30450;52.534;13.398;2022-09-09T00:39:41;8.95;;;8.05;;
44720;SDS011;30450;52.534;13.398;2022-09-09T00:42:22;9.50;;;8.48;;
44720;SDS011;30450;52.534;13.398;2022-09-09T00:57:13;10.95;;;8.55;;
44720;SDS011;30450;52.534;13.398;2022-09-09T00:59:48;11.63;;;10.50;;
44720;SDS011;30450;52.534;13.398;2022-09-09T01:05:02;10.57;;;9.63;;
44720;SDS011;30450;52.534;13.398;2022-09-09T01:07:30;9.77;;;8.77;;
44720;SDS011;30450;52.534;13.398;2022-09-09T01:09:58;9.00;;;8.20;;
44720;SDS011;30450;52.534;13.398;2022-09-09T01:12:30;10.25;;;8.93;;
44720;SDS011;30450;52.534;13.398;2022-09-09T01:15:01;10.90;;;9.82;;
44720;SDS011;30450;52.534;13.398;2022-09-09T01:17:33;12.88;;;10.10;;
44720;SDS011;30450;52.534;13.398;2022-09-09T01:27:26;9.07;;;8.35;;
44720;SDS011;30450;52.534;13.398;2022-09-09T01:29:52;11.02;;;10.02;;
44720;SDS011;30450;52.534;13.398;2022-09-09T01:35:02;12.07;;;10.93;;
44720;SDS011;30450;52.534;13.398;2022-09-09T01:37:28;12.20;;;11.00;;
44720;SDS011;30450;52.534;13.398;2022-09-09T01:39:54;10.57;;;9.57;;
44720;SDS011;30450;52.534;13.398;2022-09-09T01:42:20;11.77;;;10.63;;
44720;SDS011;30450;52.534;13.398;2022-09-09T01:44:45;11.85;;;10.68;;
44720;SDS011;30450;52.534;13.398;2022-09-09T01:47:11;12.05;;;10.73;;
44720;SDS011;30450;52.534;13.398;2022-09-09T01:49:37;13.05;;;11.75;;
44720;SDS011;30450;52.534;13.398;2022-09-09T01:52:02;11.55;;;10.55;;
44720;SDS011;30450;52.534;13.398;2022-09-09T01:54:30;11.82;;;10.82;;
44720;SDS011;30450;52.534;13.398;2022-09-09T01:57:08;11.57;;;10.52;;
44720;SDS011;30450;52.534;13.398;2022-09-09T02:04:53;9.73;;;8.75;;
44720;SDS011;30450;52.534;13.398;2022-09-09T02:07:42;11.07;;;10.00;;
44720;SDS011;30450;52.534;13.398;2022-09-09T02:10:22;10.40;;;9.40;;
44720;SDS011;30450;52.534;13.398;2022-09-09T02:12:55;11.07;;;9.05;;
44720;SDS011;30450;52.534;13.398;2022-09-09T02:15:28;10.02;;;9.00;;
44720;SDS011;30450;52.534;13.398;2022-09-09T02:17:57;9.18;;;8.27;;
44720;SDS011;30450;52.534;13.398;2022-09-09T02:20:23;10.40;;;9.35;;
44720;SDS011;30450;52.534;13.398;2022-09-09T02:22:52;9.77;;;8.90;;
44720;SDS011;30450;52.534;13.398;2022-09-09T02:25:19;11.45;;;8.95;;
44720;SDS011;30450;52.534;13.398;2022-09-09T02:27:45;10.80;;;9.77;;
44720;SDS011;30450;52.534;13.398;2022-09-09T02:30:14;10.15;;;9.15;;
44720;SDS011;30450;52.534;13.398;2022-09-09T02:32:40;11.10;;;9.52;;
44720;SDS011;30450;52.534;13.398;2022-09-09T02:35:09;10.43;;;9.20;;
44720;SDS011;30450;52.534;13.398;2022-09-09T02:37:37;10.80;;;9.70;;
44720;SDS011;30450;52.534;13.398;2022-09-09T02:40:03;14.40;;;9.35;;
44720;SDS011;30450;52.534;13.398;2022-09-09T02:42:30;9.77;;;8.77;;
44720;SDS011;30450;52.534;13.398;2022-09-09T02:44:55;9.18;;;8.23;;
44720;SDS011;30450;52.534;13.398;2022-09-09T02:52:20;9.52;;;8.63;;
44720;SDS011;30450;52.534;13.398;2022-09-09T02:54:47;9.57;;;8.68;;
44720;SDS011;30450;52.534;13.398;2022-09-09T02:57:22;12.60;;;8.38;;
44720;SDS011;30450;52.534;13.398;2022-09-09T02:59:49;17.55;;;9.48;;
44720;SDS011;30450;52.534;13.398;2022-09-09T03:02:15;9.73;;;7.70;;
44720;SDS011;30450;52.534;13.398;2022-09-09T03:04:41;9.13;;;8.23;;
44720;SDS011;30450;52.534;13.398;2022-09-09T03:07:10;8.50;;;7.60;;
44720;SDS011;30450;52.534;13.398;2022-09-09T03:09:36;8.60;;;7.80;;
44720;SDS011;30450;52.534;13.398;2022-09-09T03:12:01;11.50;;;7.85;;
44720;SDS011;30450;52.534;13.398;2022-09-09T03:16:55;9.88;;;8.02;;
44720;SDS011;30450;52.534;13.398;2022-09-09T03:19:25;9.73;;;8.82;;
44720;SDS011;30450;52.534;13.398;2022-09-09T03:21:51;10.25;;;7.93;;
44720;SDS011;30450;52.534;13.398;2022-09-09T03:24:17;8.55;;;7.47;;
44720;SDS011;30450;52.534;13.398;2022-09-09T03:26:42;9.52;;;8.25;;
44720;SDS011;30450;52.534;13.398;2022-09-09T03:29:12;9.23;;;8.32;;
44720;SDS011;30450;52.534;13.398;2022-09-09T03:31:39;11.00;;;8.02;;
44720;SDS011;30450;52.534;13.398;2022-09-09T03:34:05;11.75;;;8.95;;
44720;SDS011;30450;52.534;13.398;2022-09-09T03:36:30;10.10;;;8.88;;
44720;SDS011;30450;52.534;13.398;2022-09-09T03:38:56;10.52;;;8.00;;
44720;SDS011;30450;52.534;13.398;2022-09-09T03:41:23;8.73;;;7.22;;
44720;SDS011;30450;52.534;13.398;2022-09-09T03:43:52;9.10;;;8.15;;
44720;SDS011;30450;52.534;13.398;2022-09-09T03:46:22;9.32;;;8.07;;
44720;SDS011;30450;52.534;13.398;2022-09-09T03:48:48;8.85;;;7.82;;
44720;SDS011;30450;52.534;13.398;2022-09-09T03:51:14;16.15;;;7.82;;
44720;SDS011;30450;52.534;13.398;2022-09-09T03:53:41;10.20;;;7.80;;
44720;SDS011;30450;52.534;13.398;2022-09-09T03:56:07;9.35;;;7.43;;
44720;SDS011;30450;52.534;13.398;2022-09-09T03:58:33;9.55;;;7.57;;
44720;SDS011;30450;52.534;13.398;2022-09-09T04:03:25;8.25;;;6.70;;
44720;SDS011;30450;52.534;13.398;2022-09-09T04:05:54;8.05;;;5.80;;
44720;SDS011;30450;52.534;13.398;2022-09-09T04:08:20;6.55;;;5.85;;
44720;SDS011;30450;52.534;13.398;2022-09-09T04:10:47;11.10;;;6.00;;
44720;SDS011;30450;52.534;13.398;2022-09-09T04:13:13;8.77;;;6.60;;
44720;SDS011;30450;52.534;13.398;2022-09-09T04:15:41;6.43;;;5.75;;
44720;SDS011;30450;52.534;13.398;2022-09-09T04:18:07;8.50;;;5.93;;
44720;SDS011;30450;52.534;13.398;2022-09-09T04:20:33;7.38;;;5.55;;
44720;SDS011;30450;52.534;13.398;2022-09-09T04:22:59;8.60;;;6.50;;
44720;SDS011;30450;52.534;13.398;2022-09-09T04:25:25;10.00;;;5.93;;
44720;SDS011;30450;52.534;13.398;2022-09-09T04:27:54;6.78;;;6.07;;
44720;SDS011;30450;52.534;13.398;2022-09-09T04:30:20;8.63;;;4.82;;
44720;SDS011;30450;52.534;13.398;2022-09-09T04:32:46;6.32;;;5.45;;
44720;SDS011;30450;52.534;13.398;2022-09-09T04:35:12;8.00;;;4.93;;
44720;SDS011;30450;52.534;13.398;2022-09-09T04:37:37;7.20;;;5.43;;
44720;SDS011;30450;52.534;13.398;2022-09-09T04:40:04;6.35;;;4.60;;
44720;SDS011;30450;52.534;13.398;2022-09-09T04:42:29;7.55;;;4.63;;
44720;SDS011;30450;52.534;13.398;2022-09-09T04:44:55;7.32;;;5.05;;
44720;SDS011;30450;52.534;13.398;2022-09-09T04:47:21;7.45;;;5.28;;
44720;SDS011;30450;52.534;13.398;2022-09-09T04:49:47;7.90;;;5.10;;
44720;SDS011;30450;52.534;13.398;2022-09-09T04:52:12;12.27;;;5.13;;
44720;SDS011;30450;52.534;13.398;2022-09-09T04:54:38;6.35;;;5.30;;
44720;SDS011;30450;52.534;13.398;2022-09-09T04:57:04;10.48;;;5.78;;
44720;SDS011;30450;52.534;13.398;2022-09-09T04:59:30;11.98;;;5.25;;
44720;SDS011;30450;52.534;13.398;2022-09-09T05:01:56;10.00;;;4.60;;
44720;SDS011;30450;52.534;13.398;2022-09-09T05:04:22;12.63;;;6.22;;
44720;SDS011;30450;52.534;13.398;2022-09-09T05:06:48;7.63;;;5.53;;
44720;SDS011;30450;52.534;13.398;2022-09-09T05:09:14;11.73;;;5.43;;
44720;SDS011;30450;52.534;13.398;2022-09-09T05:11:40;9.98;;;5.95;;
44720;SDS011;30450;52.534;13.398;2022-09-09T05:14:06;7.80;;;5.35;;
44720;SDS011;30450;52.534;13.398;2022-09-09T05:16:31;10.77;;;5.60;;
44720;SDS011;30450;52.534;13.398;2022-09-09T05:18:57;7.90;;;5.65;;
44720;SDS011;30450;52.534;13.398;2022-09-09T05:21:24;6.60;;;5.43;;
44720;SDS011;30450;52.534;13.398;2022-09-09T05:23:54;11.23;;;5.60;;
44720;SDS011;30450;52.534;13.398;2022-09-09T05:26:20;7.78;;;4.72;;
44720;SDS011;30450;52.534;13.398;2022-09-09T05:28:46;6.45;;;4.47;;
44720;SDS011;30450;52.534;13.398;2022-09-09T05:31:12;9.93;;;4.85;;
44720;SDS011;30450;52.534;13.398;2022-09-09T05:33:39;7.30;;;4.43;;
44720;SDS011;30450;52.534;13.398;2022-09-09T05:36:10;7.47;;;5.13;;
44720;SDS011;30450;52.534;13.398;2022-09-09T05:38:38;8.57;;;5.20;;
44720;SDS011;30450;52.534;13.398;2022-09-09T05:41:04;7.97;;;4.95;;
44720;SDS011;30450;52.534;13.398;2022-09-09T05:43:30;9.20;;;5.30;;
44720;SDS011;30450;52.534;13.398;2022-09-09T05:46:01;9.73;;;4.75;;
44720;SDS011;30450;52.534;13.398;2022-09-09T05:48:28;8.80;;;5.05;;
44720;SDS011;30450;52.534;13.398;2022-09-09T05:50:54;12.32;;;4.85;;
44720;SDS011;30450;52.534;13.398;2022-09-09T05:53:20;9.05;;;5.22;;
44720;SDS011;30450;52.534;13.398;2022-09-09T05:55:45;7.28;;;4.65;;
44720;SDS011;30450;52.534;13.398;2022-09-09T05:58:11;5.85;;;4.57;;
44720;SDS011;30450;52.534;13.398;2022-09-09T06:00:36;6.50;;;4.43;;
44720;SDS011;30450;52.534;13.398;2022-09-09T06:03:03;6.40;;;4.40;;
44720;SDS011;30450;52.534;13.398;2022-09-09T06:05:29;6.43;;;4.38;;
44720;SDS011;30450;52.534;13.398;2022-09-09T06:07:55;9.80;;;4.80;;
44720;SDS011;30450;52.534;13.398;2022-09-09T06:10:21;7.00;;;4.95;;
44720;SDS011;30450;52.534;13.398;2022-09-09T06:12:47;10.02;;;4.72;;
44720;SDS011;30450;52.534;13.398;2022-09-09T06:15:13;8.02;;;4.32;;
44720;SDS011;30450;52.534;13.398;2022-09-09T06:17:39;7.93;;;4.32;;
44720;SDS011;30450;52.534;13.398;2022-09-09T06:20:04;9.35;;;5.43;;
44720;SDS011;30450;52.534;13.398;2022-09-09T06:22:30;9.45;;;4.63;;
44720;SDS011;30450;52.534;13.398;2022-09-09T06:24:56;7.60;;;4.20;;
44720;SDS011;30450;52.534;13.398;2022-09-09T06:27:22;11.15;;;4.05;;
44720;SDS011;30450;52.534;13.398;2022-09-09T06:29:48;6.95;;;3.55;;
44720;SDS011;30450;52.534;13.398;2022-09-09T06:32:13;8.25;;;3.83;;
44720;SDS011;30450;52.534;13.398;2022-09-09T06:34:39;6.38;;;4.15;;
44720;SDS011;30450;52.534;13.398;2022-09-09T06:37:05;9.73;;;3.92;;
44720;SDS011;30450;52.534;13.398;2022-09-09T06:39:32;6.53;;;3.75;;
44720;SDS011;30450;52.534;13.398;2022-09-09T06:41:57;5.07;;;3.00;;
44720;SDS011;30450;52.534;13.398;2022-09-09T06:44:24;6.65;;;3.40;;
44720;SDS011;30450;52.534;13.398;2022-09-09T06:46:52;8.23;;;3.28;;
44720;SDS011;30450;52.534;13.398;2022-09-09T06:49:18;5.78;;;3.50;;
44720;SDS011;30450;52.534;13.398;2022-09-09T06:51:44;5.95;;;3.53;;
44720;SDS011;30450;52.534;13.398;2022-09-09T06:54:10;5.90;;;3.05;;
44720;SDS011;30450;52.534;13.398;2022-09-09T06:56:37;5.88;;;2.90;;
44720;SDS011;30450;52.534;13.398;2022-09-09T06:59:04;7.13;;;3.23;;
44720;SDS011;30450;52.534;13.398;2022-09-09T07:01:31;7.45;;;3.47;;
44720;SDS011;30450;52.534;13.398;2022-09-09T07:03:58;5.40;;;3.10;;
44720;SDS011;30450;52.534;13.398;2022-09-09T07:06:25;8.85;;;2.95;;
44720;SDS011;30450;52.534;13.398;2022-09-09T07:08:52;8.38;;;2.67;;
44720;SDS011;30450;52.534;13.398;2022-09-09T07:11:19;7.15;;;3.08;;
44720;SDS011;30450;52.534;13.398;2022-09-09T07:13:45;7.17;;;3.13;;
44720;SDS011;30450;52.534;13.398;2022-09-09T07:16:11;5.90;;;2.65;;
44720;SDS011;30450;52.534;13.398;2022-09-09T07:18:40;7.32;;;2.58;;
44720;SDS011;30450;52.534;13.398;2022-09-09T07:21:06;5.63;;;2.53;;
44720;SDS011;30450;52.534;13.398;2022-09-09T07:23:32;7.30;;;2.72;;
44720;SDS011;30450;52.534;13.398;2022-09-09T07:25:58;8.73;;;2.53;;
44720;SDS011;30450;52.534;13.398;2022-09-09T07:28:25;5.90;;;2.80;;
44720;SDS011;30450;52.534;13.398;2022-09-09T07:30:55;5.00;;;2.45;;
44720;SDS011;30450;52.534;13.398;2022-09-09T07:33:22;9.25;;;3.70;;
44720;SDS011;30450;52.534;13.398;2022-09-09T07:35:47;8.98;;;2.55;;
44720;SDS011;30450;52.534;13.398;2022-09-09T07:38:13;8.63;;;2.47;;
44720;SDS011;30450;52.534;13.398;2022-09-09T07:40:40;8.13;;;2.40;;
44720;SDS011;30450;52.534;13.398;2022-09-09T07:43:06;3.05;;;1.90;;
44720;SDS011;30450;52.534;13.398;2022-09-09T07:45:33;7.28;;;3.03;;
44720;SDS011;30450;52.534;13.398;2022-09-09T07:47:59;5.10;;;2.20;;
44720;SDS011;30450;52.534;13.398;2022-09-09T07:50:25;7.38;;;2.22;;
44720;SDS011;30450;52.534;13.398;2022-09-09T07:52:51;5.63;;;2.50;;
44720;SDS011;30450;52.534;13.398;2022-09-09T07:55:17;5.28;;;2.45;;
44720;SDS011;30450;52.534;13.398;2022-09-09T07:57:43;11.68;;;2.75;;
44720;SDS011;30450;52.534;13.398;2022-09-09T08:00:09;5.40;;;2.20;;
44720;SDS011;30450;52.534;13.398;2022-09-09T08:02:36;8.70;;;2.35;;
44720;SDS011;30450;52.534;13.398;2022-09-09T08:05:02;5.00;;;2.00;;
44720;SDS011;30450;52.534;13.398;2022-09-09T08:07:28;4.57;;;2.40;;
44720;SDS011;30450;52.534;13.398;2022-09-09T08:09:54;7.68;;;2.40;;
44720;SDS011;30450;52.534;13.398;2022-09-09T08:12:21;9.10;;;2.03;;
44720;SDS011;30450;52.534;13.398;2022-09-09T08:14:46;6.72;;;2.60;;
44720;SDS011;30450;52.534;13.398;2022-09-09T08:17:12;4.95;;;2.30;;
44720;SDS011;30450;52.534;13.398;2022-09-09T08:19:38;4.38;;;2.17;;
44720;SDS011;30450;52.534;13.398;2022-09-09T08:22:05;4.20;;;2.27;;
44720;SDS011;30450;52.534;13.398;2022-09-09T08:24:30;5.50;;;2.25;;
44720;SDS011;30450;52.534;13.398;2022-09-09T08:26:56;7.28;;;3.03;;
44720;SDS011;30450;52.534;13.398;2022-09-09T08:29:23;5.57;;;2.20;;
44720;SDS011;30450;52.534;13.398;2022-09-09T08:31:49;8.68;;;2.80;;
44720;SDS011;30450;52.534;13.398;2022-09-09T08:34:16;8.90;;;1.90;;
44720;SDS011;30450;52.534;13.398;2022-09-09T08:36:45;3.45;;;2.00;;
44720;SDS011;30450;52.534;13.398;2022-09-09T08:39:12;4.70;;;2.40;;
44720;SDS011;30450;52.534;13.398;2022-09-09T08:47:07;6.68;;;2.47;;
44720;SDS011;30450;52.534;13.398;2022-09-09T08:53:05;3.10;;;1.80;;
44720;SDS011;30450;52.534;13.398;2022-09-09T08:55:20;5.72;;;2.05;;
44720;SDS011;30450;52.534;13.398;2022-09-09T08:57:48;6.22;;;2.50;;
44720;SDS011;30450;52.534;13.398;2022-09-09T09:00:15;4.25;;;2.10;;
44720;SDS011;30450;52.534;13.398;2022-09-09T09:05:27;4.70;;;1.92;;
44720;SDS011;30450;52.534;13.398;2022-09-09T09:12:49;8.55;;;2.70;;
44720;SDS011;30450;52.534;13.398;2022-09-09T09:15:19;8.50;;;2.00;;
44720;SDS011;30450;52.534;13.398;2022-09-09T09:17:46;4.72;;;2.10;;
44720;SDS011;30450;52.534;13.398;2022-09-09T09:20:13;4.82;;;2.05;;
44720;SDS011;30450;52.534;13.398;2022-09-09T09:22:50;4.53;;;2.45;;
44720;SDS011;30450;52.534;13.398;2022-09-09T09:25:21;6.05;;;1.95;;
44720;SDS011;30450;52.534;13.398;2022-09-09T09:28:00;9.10;;;2.10;;
44720;SDS011;30450;52.534;13.398;2022-09-09T09:30:29;6.32;;;2.45;;
44720;SDS011;30450;52.534;13.398;2022-09-09T09:35:23;4.15;;;2.35;;
44720;SDS011;30450;52.534;13.398;2022-09-09T09:37:49;5.00;;;2.90;;
44720;SDS011;30450;52.534;13.398;2022-09-09T09:40:17;6.60;;;2.33;;
44720;SDS011;30450;52.534;13.398;2022-09-09T09:42:51;12.65;;;2.30;;
44720;SDS011;30450;52.534;13.398;2022-09-09T09:45:32;7.63;;;2.40;;
44720;SDS011;30450;52.534;13.398;2022-09-09T09:47:59;5.47;;;2.15;;
44720;SDS011;30450;52.534;13.398;2022-09-09T09:50:25;6.72;;;2.40;;
44720;SDS011;30450;52.534;13.398;2022-09-09T09:52:55;3.38;;;2.20;;
44720;SDS011;30450;52.534;13.398;2022-09-09T09:55:22;8.63;;;2.60;;
44720;SDS011;30450;52.534;13.398;2022-09-09T09:57:49;7.97;;;2.40;;
44720;SDS011;30450;52.534;13.398;2022-09-09T10:00:16;3.63;;;2.10;;
44720;SDS011;30450;52.534;13.398;2022-09-09T10:02:46;6.55;;;1.77;;
44720;SDS011;30450;52.534;13.398;2022-09-09T10:05:19;4.15;;;1.80;;
44720;SDS011;30450;52.534;13.398;2022-09-09T10:07:46;7.30;;;2.83;;
44720;SDS011;30450;52.534;13.398;2022-09-09T10:10:13;3.45;;;2.13;;
44720;SDS011;30450;52.534;13.398;2022-09-09T10:12:44;7.75;;;2.53;;
44720;SDS011;30450;52.534;13.398;2022-09-09T10:29:10;5.75;;;2.17;;
44720;SDS011;30450;52.534;13.398;2022-09-09T10:31:31;6.10;;;2.67;;
44720;SDS011;30450;52.534;13.398;2022-09-09T10:36:32;5.38;;;2.13;;
44720;SDS011;30450;52.534;13.398;2022-09-09T10:39:02;9.18;;;2.47;;
44720;SDS011;30450;52.534;13.398;2022-09-09T10:49:13;7.75;;;2.38;;
44720;SDS011;30450;52.534;13.398;2022-09-09T10:57:03;4.60;;;1.92;;
44720;SDS011;30450;52.534;13.398;2022-09-09T10:59:31;6.07;;;2.22;;
44720;SDS011;30450;52.534;13.398;2022-09-09T11:04:32;4.88;;;2.20;;
44720;SDS011;30450;52.534;13.398;2022-09-09T11:07:00;2.80;;;1.92;;
44720;SDS011;30450;52.534;13.398;2022-09-09T11:09:31;4.97;;;2.50;;
44720;SDS011;30450;52.534;13.398;2022-09-09T11:11:59;5.97;;;2.30;;
44720;SDS011;30450;52.534;13.398;2022-09-09T11:14:38;5.07;;;2.78;;
44720;SDS011;30450;52.534;13.398;2022-09-09T11:17:09;3.47;;;2.13;;
44720;SDS011;30450;52.534;13.398;2022-09-09T11:19:38;3.67;;;2.38;;
44720;SDS011;30450;52.534;13.398;2022-09-09T11:24:34;3.17;;;2.03;;
44720;SDS011;30450;52.534;13.398;2022-09-09T11:27:03;4.50;;;2.55;;
44720;SDS011;30450;52.534;13.398;2022-09-09T11:42:42;4.90;;;2.17;;
44720;SDS011;30450;52.534;13.398;2022-09-09T11:45:15;4.55;;;2.03;;
44720;SDS011;30450;52.534;13.398;2022-09-09T11:47:51;3.15;;;1.63;;
44720;SDS011;30450;52.534;13.398;2022-09-09T11:52:45;7.43;;;1.75;;
44720;SDS011;30450;52.534;13.398;2022-09-09T11:55:24;3.38;;;1.90;;
44720;SDS011;30450;52.534;13.398;2022-09-09T11:58:25;3.78;;;1.65;;
44720;SDS011;30450;52.534;13.398;2022-09-09T12:00:45;3.88;;;1.55;;
44720;SDS011;30450;52.534;13.398;2022-09-09T12:05:56;4.20;;;2.45;;
44720;SDS011;30450;52.534;13.398;2022-09-09T12:08:26;3.88;;;2.05;;
44720;SDS011;30450;52.534;13.398;2022-09-09T12:10:53;3.67;;;2.00;;
44720;SDS011;30450;52.534;13.398;2022-09-09T12:13:20;3.63;;;2.03;;
44720;SDS011;30450;52.534;13.398;2022-09-09T12:15:48;3.72;;;1.70;;
44720;SDS011;30450;52.534;13.398;2022-09-09T12:18:16;6.30;;;1.80;;
44720;SDS011;30450;52.534;13.398;2022-09-09T12:20:59;3.20;;;1.67;;
44720;SDS011;30450;52.534;13.398;2022-09-09T12:23:37;4.25;;;1.85;;
44720;SDS011;30450;52.534;13.398;2022-09-09T12:31:27;2.90;;;1.58;;
44720;SDS011;30450;52.534;13.398;2022-09-09T12:34:08;4.30;;;1.52;;
44720;SDS011;30450;52.534;13.398;2022-09-09T12:36:35;5.78;;;1.70;;
44720;SDS011;30450;52.534;13.398;2022-09-09T12:39:09;2.60;;;1.55;;
44720;SDS011;30450;52.534;13.398;2022-09-09T12:41:36;2.25;;;1.33;;
44720;SDS011;30450;52.534;13.398;2022-09-09T12:44:06;6.88;;;1.33;;
44720;SDS011;30450;52.534;13.398;2022-09-09T12:46:41;3.50;;;1.50;;
44720;SDS011;30450;52.534;13.398;2022-09-09T12:51:52;3.55;;;1.60;;
44720;SDS011;30450;52.534;13.398;2022-09-09T12:54:18;3.97;;;1.30;;
44720;SDS011;30450;52.534;13.398;2022-09-09T12:56:47;5.03;;;1.75;;
44720;SDS011;30450;52.534;13.398;2022-09-09T13:00:03;4.03;;;1.50;;
44720;SDS011;30450;52.534;13.398;2022-09-09T13:02:11;5.03;;;1.85;;
44720;SDS011;30450;52.534;13.398;2022-09-09T13:04:37;2.03;;;1.38;;
44720;SDS011;30450;52.534;13.398;2022-09-09T13:07:06;2.05;;;1.45;;
44720;SDS011;30450;52.534;13.398;2022-09-09T13:09:32;3.92;;;1.50;;
44720;SDS011;30450;52.534;13.398;2022-09-09T13:11:58;5.28;;;1.90;;
44720;SDS011;30450;52.534;13.398;2022-09-09T13:14:28;3.42;;;1.42;;
44720;SDS011;30450;52.534;13.398;2022-09-09T13:17:04;7.75;;;1.58;;
44720;SDS011;30450;52.534;13.398;2022-09-09T13:19:31;3.92;;;1.85;;
44720;SDS011;30450;52.534;13.398;2022-09-09T13:24:25;3.78;;;1.42;;
44720;SDS011;30450;52.534;13.398;2022-09-09T13:27:00;2.67;;;1.45;;
44720;SDS011;30450;52.534;13.398;2022-09-09T13:29:28;5.38;;;1.95;;
44720;SDS011;30450;52.534;13.398;2022-09-09T13:32:03;3.53;;;1.40;;
44720;SDS011;30450;52.534;13.398;2022-09-09T13:34:29;4.97;;;1.30;;
44720;SDS011;30450;52.534;13.398;2022-09-09T13:36:58;1.80;;;1.08;;
44720;SDS011;30450;52.534;13.398;2022-09-09T13:39:24;4.20;;;1.40;;
44720;SDS011;30450;52.534;13.398;2022-09-09T13:41:50;11.07;;;1.63;;
44720;SDS011;30450;52.534;13.398;2022-09-09T13:44:17;5.78;;;2.17;;
44720;SDS011;30450;52.534;13.398;2022-09-09T13:46:45;7.85;;;1.88;;
44720;SDS011;30450;52.534;13.398;2022-09-09T13:54:05;4.15;;;1.17;;
44720;SDS011;30450;52.534;13.398;2022-09-09T13:56:32;7.68;;;1.63;;
44720;SDS011;30450;52.534;13.398;2022-09-09T13:58:58;4.95;;;1.65;;
44720;SDS011;30450;52.534;13.398;2022-09-09T14:01:24;5.55;;;1.58;;
44720;SDS011;30450;52.534;13.398;2022-09-09T14:03:50;12.60;;;1.80;;
44720;SDS011;30450;52.534;13.398;2022-09-09T14:06:16;4.75;;;1.80;;
44720;SDS011;30450;52.534;13.398;2022-09-09T14:08:44;4.72;;;1.75;;
44720;SDS011;30450;52.534;13.398;2022-09-09T14:11:12;4.30;;;1.83;;
44720;SDS011;30450;52.534;13.398;2022-09-09T14:13:38;3.63;;;2.38;;
44720;SDS011;30450;52.534;13.398;2022-09-09T14:16:04;6.03;;;2.40;;
44720;SDS011;30450;52.534;13.398;2022-09-09T14:18:30;3.60;;;1.52;;
44720;SDS011;30450;52.534;13.398;2022-09-09T14:20:58;4.90;;;1.45;;
44720;SDS011;30450;52.534;13.398;2022-09-09T14:23:24;4.18;;;2.00;;
44720;SDS011;30450;52.534;13.398;2022-09-09T14:25:50;4.38;;;1.92;;
44720;SDS011;30450;52.534;13.398;2022-09-09T14:28:16;5.75;;;1.30;;
44720;SDS011;30450;52.534;13.398;2022-09-09T14:30:42;7.20;;;1.75;;
44720;SDS011;30450;52.534;13.398;2022-09-09T14:33:10;7.05;;;1.92;;
44720;SDS011;30450;52.534;13.398;2022-09-09T14:35:37;2.78;;;1.70;;
44720;SDS011;30450;52.534;13.398;2022-09-09T14:38:03;5.63;;;1.60;;
44720;SDS011;30450;52.534;13.398;2022-09-09T14:40:30;5.53;;;1.50;;
44720;SDS011;30450;52.534;13.398;2022-09-09T14:42:56;4.85;;;1.98;;
44720;SDS011;30450;52.534;13.398;2022-09-09T14:45:22;3.58;;;1.50;;
44720;SDS011;30450;52.534;13.398;2022-09-09T14:47:49;1.88;;;1.25;;
44720;SDS011;30450;52.534;13.398;2022-09-09T14:50:15;3.30;;;1.60;;
44720;SDS011;30450;52.534;13.398;2022-09-09T14:52:41;3.45;;;1.55;;
44720;SDS011;30450;52.534;13.398;2022-09-09T14:55:07;3.28;;;1.48;;
44720;SDS011;30450;52.534;13.398;2022-09-09T14:57:33;4.15;;;2.05;;
44720;SDS011;30450;52.534;13.398;2022-09-09T15:00:00;4.63;;;1.50;;
44720;SDS011;30450;52.534;13.398;2022-09-09T15:02:26;4.03;;;1.65;;
44720;SDS011;30450;52.534;13.398;2022-09-09T15:04:52;5.30;;;1.98;;
44720;SDS011;30450;52.534;13.398;2022-09-09T15:07:18;3.40;;;1.63;;
44720;SDS011;30450;52.534;13.398;2022-09-09T15:09:44;4.43;;;1.58;;
44720;SDS011;30450;52.534;13.398;2022-09-09T15:12:10;5.55;;;2.00;;
44720;SDS011;30450;52.534;13.398;2022-09-09T15:14:35;3.42;;;1.90;;
44720;SDS011;30450;52.534;13.398;2022-09-09T15:17:01;4.97;;;1.90;;
44720;SDS011;30450;52.534;13.398;2022-09-09T15:19:27;6.00;;;1.90;;
44720;SDS011;30450;52.534;13.398;2022-09-09T15:21:53;2.88;;;1.92;;
44720;SDS011;30450;52.534;13.398;2022-09-09T15:24:19;6.07;;;1.38;;
44720;SDS011;30450;52.534;13.398;2022-09-09T15:26:46;5.90;;;2.20;;
44720;SDS011;30450;52.534;13.398;2022-09-09T15:29:12;5.25;;;2.00;;
44720;SDS011;30450;52.534;13.398;2022-09-09T15:31:38;4.20;;;1.75;;
44720;SDS011;30450;52.534;13.398;2022-09-09T15:34:04;3.45;;;1.48;;
44720;SDS011;30450;52.534;13.398;2022-09-09T15:36:31;4.27;;;2.23;;
44720;SDS011;30450;52.534;13.398;2022-09-09T15:38:58;6.50;;;1.67;;
44720;SDS011;30450;52.534;13.398;2022-09-09T15:41:24;3.65;;;1.45;;
44720;SDS011;30450;52.534;13.398;2022-09-09T15:43:51;4.07;;;1.65;;
44720;SDS011;30450;52.534;13.398;2022-09-09T15:48:46;4.63;;;1.45;;
44720;SDS011;30450;52.534;13.398;2022-09-09T15:51:12;3.60;;;1.73;;
44720;SDS011;30450;52.534;13.398;2022-09-09T15:53:39;3.75;;;1.55;;
44720;SDS011;30450;52.534;13.398;2022-09-09T15:56:06;2.65;;;1.27;;
44720;SDS011;30450;52.534;13.398;2022-09-09T15:58:35;6.10;;;1.67;;
44720;SDS011;30450;52.534;13.398;2022-09-09T16:01:11;4.72;;;1.90;;
44720;SDS011;30450;52.534;13.398;2022-09-09T16:03:39;2.20;;;1.45;;
44720;SDS011;30450;52.534;13.398;2022-09-09T16:06:06;2.33;;;1.50;;
44720;SDS011;30450;52.534;13.398;2022-09-09T16:08:33;3.23;;;1.53;;
44720;SDS011;30450;52.534;13.398;2022-09-09T16:11:08;4.25;;;2.78;;
44720;SDS011;30450;52.534;13.398;2022-09-09T16:13:40;3.40;;;1.35;;
44720;SDS011;30450;52.534;13.398;2022-09-09T16:16:06;4.18;;;1.65;;
44720;SDS011;30450;52.534;13.398;2022-09-09T16:18:43;5.10;;;1.60;;
44720;SDS011;30450;52.534;13.398;2022-09-09T16:21:15;5.45;;;1.90;;
44720;SDS011;30450;52.534;13.398;2022-09-09T16:23:41;3.15;;;1.35;;
44720;SDS011;30450;52.534;13.398;2022-09-09T16:26:08;5.95;;;2.13;;
44720;SDS011;30450;52.534;13.398;2022-09-09T16:28:36;6.20;;;2.75;;
44720;SDS011;30450;52.534;13.398;2022-09-09T16:31:05;5.50;;;1.95;;
44720;SDS011;30450;52.534;13.398;2022-09-09T16:33:31;4.78;;;1.67;;
44720;SDS011;30450;52.534;13.398;2022-09-09T16:35:57;3.17;;;1.98;;
44720;SDS011;30450;52.534;13.398;2022-09-09T16:38:23;4.25;;;1.70;;
44720;SDS011;30450;52.534;13.398;2022-09-09T16:40:49;4.00;;;1.80;;
44720;SDS011;30450;52.534;13.398;2022-09-09T16:43:15;4.72;;;2.03;;
44720;SDS011;30450;52.534;13.398;2022-09-09T16:45:42;3.70;;;1.85;;
44720;SDS011;30450;52.534;13.398;2022-09-09T16:48:08;4.95;;;2.33;;
44720;SDS011;30450;52.534;13.398;2022-09-09T16:50:33;4.15;;;1.75;;
44720;SDS011;30450;52.534;13.398;2022-09-09T16:53:00;3.90;;;1.67;;
44720;SDS011;30450;52.534;13.398;2022-09-09T16:55:28;4.35;;;1.90;;
44720;SDS011;30450;52.534;13.398;2022-09-09T16:57:54;5.20;;;2.78;;